Osborne, Iowa
Current Conditions -  °F | °C
As of 5:55 AM on Thursday 27 Nov 2014 (Local Time) from KPDC Reporting Station
Overcast Overcast  
Wind Chill: 11°   Ceiling: 2400
Heat Index: 20°   Visibility: 10mi
Dew Point: 13°   Wind: 8mph
Humidity: 74%   Direction: 300°WNW
Pressure: 30.37"   Gusts: NA
Location:  42.8388°N, 91.4421°W
Report Text: KPDC 271155Z AUTO 30007KT 10SM SCT019 OVC024 M06/M10 A3037 RMK AO2 T10651105 11037 21065
Loading
Personal Weather Stations






























Interactive Weather Map New forecast layout! Learn more

10-Day Weather Forecast

Advertisements
Track Severe Weather on mobile